Time;durP1;ratioP1;P1;durP2;ratioP2;P2;SDS_P1;SDS_P2;PMS_P1;PMS_P2;Temp;Humidity;BMP_temperature;BMP_pressure;BME280_temperature;BME280_humidity;BME280_pressure;Samples;Min_cycle;Max_cycle;Signal;HPM_P1;HPM_P2
2024/01/22 00:00:12;;;;;;;6.80;3.37;;;6.10;53.20;;;;;;4926401;28;20295;-68
2024/01/22 00:02:38;;;;;;;6.43;3.47;;;6.00;53.40;;;;;;4929349;29;20491;-69
2024/01/22 00:05:03;;;;;;;3.57;2.43;;;5.90;54.40;;;;;;4933419;28;20432;-70
2024/01/22 00:07:29;;;;;;;7.23;2.93;;;5.80;54.60;;;;;;4934230;28;20279;-72
2024/01/22 00:09:55;;;;;;;5.10;2.80;;;5.70;55.00;;;;;;4954479;28;20424;-69
2024/01/22 00:12:20;;;;;;;5.77;2.90;;;5.60;55.20;;;;;;4937192;28;20476;-71
2024/01/22 00:14:47;;;;;;;4.60;2.60;;;5.70;54.50;;;;;;4934555;28;20562;-72
2024/01/22 00:17:13;;;;;;;4.80;3.23;;;5.70;54.80;;;;;;4932579;28;20573;-71
2024/01/22 00:19:38;;;;;;;6.20;3.00;;;5.60;55.30;;;;;;4935533;28;20429;-71
2024/01/22 00:22:04;;;;;;;5.40;3.17;;;5.60;55.40;;;;;;4930898;28;21007;-71
2024/01/22 00:24:30;;;;;;;5.07;3.30;;;5.50;55.80;;;;;;4938015;28;20612;-70
2024/01/22 00:26:55;;;;;;;6.80;3.13;;;5.40;56.40;;;;;;4960845;28;20692;-70
2024/01/22 00:29:21;;;;;;;8.07;3.80;;;5.30;56.80;;;;;;4946164;28;20192;-70
2024/01/22 00:31:46;;;;;;;6.47;3.50;;;5.20;57.30;;;;;;4939277;28;20211;-70
2024/01/22 00:34:12;;;;;;;3.10;2.70;;;5.10;58.00;;;;;;4941502;28;20557;-70
2024/01/22 00:36:38;;;;;;;7.57;2.80;;;5.00;58.10;;;;;;4954490;28;20721;-68
2024/01/22 00:39:03;;;;;;;7.07;3.40;;;5.00;58.40;;;;;;4954633;28;20197;-70
2024/01/22 00:41:29;;;;;;;7.07;3.47;;;4.80;58.80;;;;;;4939248;28;20216;-71
2024/01/22 00:43:54;;;;;;;6.40;3.50;;;4.80;59.10;;;;;;4940864;29;20642;-68
2024/01/22 00:46:20;;;;;;;5.53;3.60;;;4.60;59.60;;;;;;4936114;28;20201;-67
2024/01/22 00:48:46;;;;;;;5.50;3.47;;;4.60;60.10;;;;;;4961569;28;20246;-70
2024/01/22 00:51:12;;;;;;;5.40;3.00;;;4.50;60.40;;;;;;4927107;28;20547;-70
2024/01/22 00:53:37;;;;;;;5.53;3.07;;;4.50;60.60;;;;;;4949641;28;20303;-68
2024/01/22 00:56:03;;;;;;;5.83;3.33;;;4.50;61.00;;;;;;4949968;28;20497;-71
2024/01/22 00:58:29;;;;;;;5.80;3.63;;;4.30;61.20;;;;;;4932754;28;20964;-69
2024/01/22 01:00:54;;;;;;;7.30;3.23;;;4.20;61.60;;;;;;4928313;28;20456;-69
2024/01/22 01:03:20;;;;;;;4.90;3.57;;;4.20;61.30;;;;;;4932020;28;20212;-69
2024/01/22 01:05:46;;;;;;;5.60;2.97;;;4.20;61.60;;;;;;4948551;28;20192;-70
2024/01/22 01:08:11;;;;;;;6.80;3.47;;;4.20;61.60;;;;;;4934537;28;20271;-71
2024/01/22 01:10:37;;;;;;;6.13;3.43;;;4.00;62.60;;;;;;4929456;28;20569;-70
2024/01/22 01:13:03;;;;;;;5.40;2.93;;;4.00;63.20;;;;;;4932485;28;20754;-70
2024/01/22 01:15:28;;;;;;;5.83;2.83;;;3.90;63.90;;;;;;4932540;28;20189;-68
2024/01/22 01:17:54;;;;;;;4.17;3.10;;;3.80;64.50;;;;;;4929698;28;20193;-68
2024/01/22 01:20:19;;;;;;;6.67;3.53;;;3.80;65.30;;;;;;4927153;28;20241;-70
2024/01/22 01:22:45;;;;;;;7.27;3.37;;;3.70;65.30;;;;;;4931697;29;20192;-70
2024/01/22 01:25:10;;;;;;;5.57;3.07;;;3.70;65.40;;;;;;4932251;28;20200;-69
2024/01/22 01:27:36;;;;;;;6.37;3.73;;;3.70;65.60;;;;;;4931429;28;20211;-70
2024/01/22 01:30:02;;;;;;;4.90;2.87;;;3.60;65.80;;;;;;4961010;28;20922;-70
2024/01/22 01:32:28;;;;;;;6.93;3.20;;;3.50;66.00;;;;;;4936841;28;20208;-69
2024/01/22 01:34:54;;;;;;;6.77;3.17;;;3.40;66.10;;;;;;4931535;28;20850;-70
2024/01/22 01:37:19;;;;;;;5.23;3.30;;;3.40;66.40;;;;;;4944169;28;20193;-69
2024/01/22 01:39:45;;;;;;;5.90;3.10;;;3.30;66.70;;;;;;4946966;28;20211;-68
2024/01/22 01:42:10;;;;;;;5.57;3.37;;;3.20;67.20;;;;;;4934908;28;20203;-67
2024/01/22 01:44:39;;;;;;;8.23;3.80;;;3.30;67.30;;;;;;4937393;28;20314;-70
2024/01/22 01:47:05;;;;;;;6.03;3.38;;;3.20;67.30;;;;;;4961189;28;20243;-68
2024/01/22 01:49:31;;;;;;;5.95;3.70;;;3.20;67.70;;;;;;4941516;28;20189;-69
2024/01/22 01:51:57;;;;;;;5.37;3.03;;;3.10;68.00;;;;;;4939608;28;20230;-69
2024/01/22 01:54:24;;;;;;;5.43;3.13;;;3.20;68.30;;;;;;4939680;28;20216;-69
2024/01/22 01:56:51;;;;;;;5.87;3.43;;;3.10;68.30;;;;;;4946110;28;20436;-69
2024/01/22 01:59:17;;;;;;;8.60;3.58;;;3.00;68.60;;;;;;4933764;28;20421;-71
2024/01/22 02:01:43;;;;;;;4.65;3.13;;;3.10;68.80;;;;;;4929202;28;20213;-69
2024/01/22 02:04:08;;;;;;;6.80;3.63;;;3.10;69.10;;;;;;4931409;28;20238;-68
2024/01/22 02:06:34;;;;;;;6.33;3.53;;;3.00;69.50;;;;;;4942514;28;20193;-68
2024/01/22 02:09:00;;;;;;;7.13;4.17;;;2.90;69.80;;;;;;4947977;28;20204;-69
2024/01/22 02:11:25;;;;;;;6.00;3.47;;;2.90;69.90;;;;;;4928157;28;20216;-69
2024/01/22 02:13:52;;;;;;;6.93;3.30;;;2.90;69.90;;;;;;4931906;28;20670;-69
2024/01/22 02:16:18;;;;;;;4.85;2.65;;;2.90;70.10;;;;;;4933575;28;20275;-71
2024/01/22 02:18:45;;;;;;;6.60;3.10;;;2.90;70.10;;;;;;4933712;28;20196;-71
2024/01/22 02:21:10;;;;;;;4.22;2.83;;;2.90;70.10;;;;;;4927577;28;20484;-68
2024/01/22 02:23:36;;;;;;;5.43;3.20;;;3.00;70.10;;;;;;4945985;28;20653;-70
2024/01/22 02:26:02;;;;;;;4.40;2.90;;;2.90;69.80;;;;;;4946394;28;20198;-68
2024/01/22 02:28:28;;;;;;;7.50;3.57;;;2.90;70.20;;;;;;4938156;28;20211;-69
2024/01/22 02:30:54;;;;;;;5.32;3.15;;;2.80;70.10;;;;;;4946215;28;20254;-69
2024/01/22 02:33:20;;;;;;;4.70;3.40;;;2.80;70.20;;;;;;4929923;28;20220;-69
2024/01/22 02:35:45;;;;;;;9.07;4.47;;;2.90;70.40;;;;;;4939530;28;20427;-71
2024/01/22 02:38:11;;;;;;;7.00;3.57;;;3.00;70.20;;;;;;4930137;28;20461;-68
2024/01/22 02:40:36;;;;;;;7.90;3.73;;;3.00;70.20;;;;;;4960971;28;20200;-70
2024/01/22 02:43:02;;;;;;;8.17;3.60;;;2.90;70.20;;;;;;4956534;28;20196;-70
2024/01/22 02:45:28;;;;;;;8.27;4.50;;;2.80;70.40;;;;;;4954028;28;20663;-69
2024/01/22 02:47:53;;;;;;;7.63;3.93;;;2.80;70.50;;;;;;4929723;28;20189;-69
2024/01/22 02:50:20;;;;;;;5.70;2.77;;;2.80;70.80;;;;;;4925215;28;20211;-71
2024/01/22 02:52:45;;;;;;;7.45;4.13;;;2.80;71.00;;;;;;4929442;29;20220;-68
2024/01/22 02:55:11;;;;;;;5.30;2.83;;;2.80;71.00;;;;;;4931616;28;20184;-70
2024/01/22 02:57:36;;;;;;;5.73;3.47;;;2.80;71.00;;;;;;4931664;28;20181;-71
2024/01/22 03:00:03;;;;;;;5.50;3.10;;;2.80;71.00;;;;;;4926621;28;20701;-68
2024/01/22 03:02:28;;;;;;;5.07;3.53;;;2.80;71.10;;;;;;4928878;28;20920;-70
2024/01/22 03:04:54;;;;;;;6.00;3.60;;;2.70;71.10;;;;;;4929690;28;20436;-69
2024/01/22 03:07:19;;;;;;;5.57;3.10;;;2.70;71.60;;;;;;4954874;28;20195;-71
2024/01/22 03:09:45;;;;;;;4.50;3.00;;;2.60;71.40;;;;;;4934155;28;20647;-70
2024/01/22 03:12:11;;;;;;;4.70;2.90;;;2.60;71.60;;;;;;4926276;28;20217;-69
2024/01/22 03:14:36;;;;;;;7.77;3.37;;;2.60;71.70;;;;;;4928091;28;20185;-72
2024/01/22 03:17:02;;;;;;;8.10;4.27;;;2.60;71.70;;;;;;4930267;28;20275;-69
2024/01/22 03:19:28;;;;;;;10.20;5.13;;;2.60;71.70;;;;;;4945033;28;20526;-68
2024/01/22 03:21:53;;;;;;;12.07;5.67;;;2.60;71.70;;;;;;4925660;28;20208;-69
2024/01/22 03:24:20;;;;;;;12.47;5.80;;;2.60;71.80;;;;;;4929816;28;20189;-69
2024/01/22 03:26:45;;;;;;;14.82;6.55;;;2.60;71.80;;;;;;4942492;28;20181;-69
2024/01/22 03:29:11;;;;;;;11.33;5.63;;;2.60;71.70;;;;;;4944751;28;20585;-69
2024/01/22 03:31:37;;;;;;;8.07;4.63;;;2.60;71.70;;;;;;4944358;28;20303;-70
2024/01/22 03:34:03;;;;;;;7.68;4.80;;;2.60;71.80;;;;;;4933255;28;20212;-70
2024/01/22 03:36:29;;;;;;;10.83;6.50;;;2.60;72.00;;;;;;4934427;28;20199;-70
2024/01/22 03:38:55;;;;;;;10.30;5.60;;;2.60;72.00;;;;;;4934172;28;20463;-70
2024/01/22 03:41:20;;;;;;;15.67;7.70;;;2.60;72.00;;;;;;4931316;28;20530;-69
2024/01/22 03:43:46;;;;;;;14.83;7.70;;;2.70;72.10;;;;;;4949554;28;20272;-70
2024/01/22 03:46:13;;;;;;;17.10;7.80;;;2.70;72.10;;;;;;4946343;28;20733;-69
2024/01/22 03:48:39;;;;;;;13.88;7.45;;;2.70;71.80;;;;;;4935620;28;20184;-69
2024/01/22 03:51:05;;;;;;;10.50;5.30;;;2.70;72.00;;;;;;4930082;28;20636;-68
2024/01/22 03:53:30;;;;;;;11.03;5.43;;;2.70;71.80;;;;;;4933967;28;20480;-70
2024/01/22 03:55:56;;;;;;;16.20;5.53;;;2.80;72.10;;;;;;4936161;28;20238;-69
2024/01/22 03:58:22;;;;;;;7.20;4.00;;;2.80;72.10;;;;;;4938019;28;20490;-69
2024/01/22 04:00:47;;;;;;;9.67;6.03;;;2.80;72.30;;;;;;4948023;28;20238;-69
2024/01/22 04:03:13;;;;;;;11.23;7.40;;;2.90;72.30;;;;;;4949398;28;20241;-68
2024/01/22 04:05:39;;;;;;;10.03;5.47;;;2.90;72.10;;;;;;4955966;28;20572;-69
2024/01/22 04:08:06;;;;;;;9.60;4.97;;;2.90;72.10;;;;;;4953097;28;20220;-70
2024/01/22 04:10:32;;;;;;;7.20;4.45;;;2.90;72.10;;;;;;4962190;28;20221;-69
2024/01/22 04:12:57;;;;;;;9.30;5.00;;;3.00;72.30;;;;;;4937358;28;20217;-70
2024/01/22 04:15:23;;;;;;;9.80;5.00;;;3.00;72.10;;;;;;4938958;28;20272;-69
2024/01/22 04:17:49;;;;;;;9.10;4.03;;;3.00;72.10;;;;;;4956556;28;20186;-70
2024/01/22 04:20:15;;;;;;;6.97;4.00;;;2.90;72.30;;;;;;4931212;28;20563;-68
2024/01/22 04:22:40;;;;;;;9.37;4.23;;;3.00;72.40;;;;;;4938596;28;20208;-69
2024/01/22 04:25:08;;;;;;;8.43;3.90;;;2.90;72.40;;;;;;4936778;28;20331;-68
2024/01/22 04:27:34;;;;;;;7.20;3.63;;;3.00;72.60;;;;;;4943301;28;20674;-69
2024/01/22 04:30:00;;;;;;;8.45;3.70;;;3.00;72.40;;;;;;4938637;28;20594;-68
2024/01/22 04:32:25;;;;;;;10.27;4.83;;;3.20;72.60;;;;;;4974389;28;20308;-68
2024/01/22 04:34:52;;;;;;;11.23;5.20;;;3.10;72.40;;;;;;4934412;28;20428;-69
2024/01/22 04:37:17;;;;;;;7.68;4.38;;;3.10;72.40;;;;;;4947815;28;20235;-69
2024/01/22 04:39:43;;;;;;;16.50;7.23;;;3.10;72.60;;;;;;4962605;28;20212;-70
2024/01/22 04:42:18;;;;;;;11.90;7.50;;;3.20;72.60;;;;;;4931162;28;20199;-69
2024/01/22 04:44:43;;;;;;;14.90;7.30;;;3.10;72.30;;;;;;4930490;28;20188;-69
2024/01/22 04:47:09;;;;;;;10.70;6.90;;;3.10;72.10;;;;;;4947267;28;20181;-66
2024/01/22 04:49:35;;;;;;;11.50;7.23;;;3.10;72.30;;;;;;4945112;28;20250;-70
2024/01/22 04:52:00;;;;;;;11.73;7.70;;;3.20;72.10;;;;;;4938014;28;20220;-69
2024/01/22 04:54:26;;;;;;;13.47;7.50;;;3.10;72.10;;;;;;4939532;28;20283;-69
2024/01/22 04:56:54;;;;;;;14.87;6.80;;;3.10;72.10;;;;;;4960810;28;20192;-70
2024/01/22 04:59:20;;;;;;;16.27;8.57;;;3.10;72.10;;;;;;4939253;28;20250;-70
2024/01/22 05:01:45;;;;;;;9.53;5.37;;;3.10;72.30;;;;;;4942571;28;20472;-69
2024/01/22 05:04:11;;;;;;;16.90;7.43;;;3.20;72.10;;;;;;4931797;28;20464;-69
2024/01/22 05:06:36;;;;;;;14.93;7.17;;;3.10;72.30;;;;;;4956267;28;20293;-69
2024/01/22 05:09:04;;;;;;;14.30;7.50;;;3.20;72.00;;;;;;4934350;28;20699;-70
2024/01/22 05:11:30;;;;;;;10.95;6.00;;;3.20;71.80;;;;;;4941614;28;20299;-70
2024/01/22 05:13:56;;;;;;;11.43;6.63;;;3.20;72.00;;;;;;4935373;28;20308;-70
2024/01/22 05:16:22;;;;;;;12.45;7.05;;;3.30;72.00;;;;;;4956313;28;20897;-70
2024/01/22 05:18:50;;;;;;;13.27;6.63;;;3.30;72.00;;;;;;4932235;28;20213;-68
2024/01/22 05:21:15;;;;;;;11.52;5.90;;;3.30;72.00;;;;;;4934774;28;20491;-70
2024/01/22 05:23:41;;;;;;;14.20;6.80;;;3.30;72.00;;;;;;4949390;28;20216;-70
2024/01/22 05:26:07;;;;;;;17.73;7.27;;;3.30;72.10;;;;;;4935757;28;20203;-70
2024/01/22 05:28:34;;;;;;;15.25;7.10;;;3.30;72.10;;;;;;4961639;28;20435;-70
2024/01/22 05:31:01;;;;;;;13.87;8.50;;;3.40;72.10;;;;;;4948147;28;20279;-70
2024/01/22 05:33:27;;;;;;;13.33;6.40;;;3.40;72.10;;;;;;4933102;29;20484;-69
2024/01/22 05:35:53;;;;;;;16.65;6.45;;;3.50;72.00;;;;;;4931573;28;21114;-71
2024/01/22 05:38:19;;;;;;;15.02;7.03;;;3.50;71.80;;;;;;4931747;28;20723;-68
2024/01/22 05:40:45;;;;;;;12.57;6.30;;;3.50;71.80;;;;;;4929466;28;20220;-70
2024/01/22 05:43:10;;;;;;;11.60;5.57;;;3.50;71.80;;;;;;4930577;28;20197;-70
2024/01/22 05:45:36;;;;;;;11.07;4.33;;;3.50;72.00;;;;;;4931123;28;20235;-69
2024/01/22 05:48:02;;;;;;;7.83;4.70;;;3.80;72.10;;;;;;4938740;28;20239;-71
2024/01/22 05:50:27;;;;;;;8.00;3.47;;;4.00;72.00;;;;;;4935797;28;20205;-69
2024/01/22 05:52:53;;;;;;;4.97;3.20;;;4.40;71.80;;;;;;4930846;28;20204;-68
2024/01/22 05:55:19;;;;;;;7.43;2.73;;;4.70;71.00;;;;;;4930625;28;20188;-69
2024/01/22 05:57:44;;;;;;;4.77;2.93;;;5.10;70.70;;;;;;4927832;28;20269;-70
2024/01/22 06:00:13;;;;;;;5.30;3.33;;;5.50;69.70;;;;;;4927025;28;20240;-69
2024/01/22 06:02:42;;;;;;;6.33;3.13;;;5.80;68.90;;;;;;4931047;28;20247;-71
2024/01/22 06:05:11;;;;;;;4.23;2.83;;;6.00;68.50;;;;;;4930855;28;20487;-71
2024/01/22 06:07:37;;;;;;;4.03;2.70;;;6.10;68.30;;;;;;4933321;28;20448;-69
2024/01/22 06:10:05;;;;;;;7.70;2.53;;;6.30;67.70;;;;;;4954781;28;20456;-66
2024/01/22 06:12:31;;;;;;;4.77;2.47;;;6.50;67.30;;;;;;4926893;28;20468;-69
2024/01/22 06:14:57;;;;;;;4.83;3.10;;;6.50;67.00;;;;;;4954826;28;20440;-71
2024/01/22 06:17:23;;;;;;;5.70;2.80;;;6.60;66.90;;;;;;4947118;28;20451;-70
2024/01/22 06:19:49;;;;;;;5.53;2.70;;;6.60;67.00;;;;;;4955664;28;20458;-68
2024/01/22 06:22:15;;;;;;;4.43;2.63;;;6.60;67.00;;;;;;4934485;28;20453;-71
2024/01/22 06:24:40;;;;;;;8.43;3.33;;;6.70;67.00;;;;;;4930370;28;20195;-71
2024/01/22 06:27:06;;;;;;;4.90;2.40;;;6.80;66.40;;;;;;4936148;28;20219;-69
2024/01/22 06:29:35;;;;;;;3.97;2.37;;;6.90;66.00;;;;;;4940862;28;20195;-70
2024/01/22 06:32:01;;;;;;;5.27;2.03;;;7.00;65.60;;;;;;4935806;28;20475;-69
2024/01/22 06:34:26;;;;;;;4.00;2.47;;;7.20;64.70;;;;;;4942800;28;20798;-70
2024/01/22 06:36:52;;;;;;;6.03;2.90;;;7.30;64.70;;;;;;4938030;28;20490;-72
2024/01/22 06:39:18;;;;;;;6.77;2.80;;;7.30;64.80;;;;;;4946055;28;20257;-71
2024/01/22 06:41:43;;;;;;;6.10;2.43;;;7.30;65.00;;;;;;4936430;28;20279;-72
2024/01/22 06:44:09;;;;;;;3.77;2.50;;;7.30;64.40;;;;;;4944097;28;20275;-72
2024/01/22 06:46:35;;;;;;;6.10;2.40;;;7.40;64.40;;;;;;4934886;28;20237;-72
2024/01/22 06:49:00;;;;;;;6.47;2.90;;;7.40;64.10;;;;;;4937031;28;20733;-73
2024/01/22 06:51:28;;;;;;;4.50;2.60;;;7.50;63.80;;;;;;4940639;28;20212;-71
2024/01/22 06:53:53;;;;;;;4.80;2.70;;;7.60;63.20;;;;;;4948522;28;20286;-72
2024/01/22 06:56:19;;;;;;;3.50;2.17;;;7.70;62.90;;;;;;4929101;28;20464;-71
2024/01/22 06:58:45;;;;;;;4.87;2.70;;;7.70;62.50;;;;;;4931416;28;20661;-70
2024/01/22 07:01:10;;;;;;;5.43;2.67;;;7.70;62.30;;;;;;4925231;28;20566;-68
2024/01/22 07:03:36;;;;;;;4.10;2.23;;;7.70;62.50;;;;;;4931594;28;20212;-68
2024/01/22 07:06:03;;;;;;;8.93;2.80;;;7.70;62.50;;;;;;4930764;28;20830;-70
2024/01/22 07:08:28;;;;;;;6.00;2.70;;;7.70;62.30;;;;;;4932602;28;20444;-70
2024/01/22 07:10:54;;;;;;;5.57;2.90;;;7.70;62.00;;;;;;4946978;28;20463;-68
2024/01/22 07:13:19;;;;;;;3.50;2.43;;;7.70;61.90;;;;;;4936359;28;20243;-69
2024/01/22 07:15:45;;;;;;;4.73;2.60;;;7.80;61.70;;;;;;4969819;28;20622;-70
2024/01/22 07:18:11;;;;;;;4.30;2.30;;;7.90;61.60;;;;;;4941395;28;20195;-68
2024/01/22 07:20:36;;;;;;;3.60;1.80;;;8.10;60.60;;;;;;4931891;28;20253;-70
2024/01/22 07:23:02;;;;;;;7.33;2.20;;;8.30;59.90;;;;;;4934457;28;20254;-69
2024/01/22 07:25:29;;;;;;;3.67;1.97;;;8.40;59.70;;;;;;4935206;28;20346;-70
2024/01/22 07:27:55;;;;;;;3.03;2.27;;;8.30;60.10;;;;;;4938398;28;20337;-70
2024/01/22 07:30:21;;;;;;;8.83;2.93;;;8.20;60.60;;;;;;4957410;28;21149;-69
2024/01/22 07:32:47;;;;;;;8.80;2.80;;;8.20;61.00;;;;;;4938636;28;20315;-69
2024/01/22 07:35:13;;;;;;;5.87;2.40;;;8.00;61.60;;;;;;4933151;28;20440;-70
2024/01/22 07:37:46;;;;;;;3.37;2.17;;;8.00;61.50;;;;;;4932793;28;20432;-70
2024/01/22 07:40:12;;;;;;;4.00;1.80;;;8.00;61.20;;;;;;4947249;28;20212;-68
2024/01/22 07:42:40;;;;;;;5.03;2.63;;;8.10;61.20;;;;;;4929144;29;20976;-69
2024/01/22 07:45:06;;;;;;;3.20;2.03;;;8.20;61.20;;;;;;4951000;28;20482;-71
2024/01/22 07:47:33;;;;;;;4.23;2.00;;;8.30;61.20;;;;;;4940992;28;20916;-69
2024/01/22 07:49:59;;;;;;;4.30;2.23;;;8.30;61.20;;;;;;4968556;28;20421;-69
2024/01/22 07:52:24;;;;;;;4.83;2.23;;;8.30;61.30;;;;;;4935067;28;20507;-70
2024/01/22 07:54:50;;;;;;;4.33;2.33;;;8.40;61.20;;;;;;4949330;28;20429;-70
2024/01/22 07:57:16;;;;;;;6.00;2.20;;;8.40;61.50;;;;;;4932865;28;20190;-70
2024/01/22 07:59:42;;;;;;;3.27;2.00;;;8.40;61.70;;;;;;4942351;28;20238;-70
2024/01/22 08:02:08;;;;;;;2.80;1.60;;;8.50;61.90;;;;;;4930585;28;20734;-71
2024/01/22 08:04:35;;;;;;;2.50;1.50;;;8.60;61.70;;;;;;4935253;28;21052;-71
2024/01/22 08:07:03;;;;;;;2.70;1.60;;;8.60;62.30;;;;;;4933632;28;20520;-69
2024/01/22 08:09:35;;;;;;;2.77;1.37;;;8.70;62.50;;;;;;4933967;28;20433;-70
2024/01/22 08:12:03;;;;;;;2.80;1.70;;;8.80;62.60;;;;;;4934130;28;20479;-69
2024/01/22 08:14:30;;;;;;;3.00;1.57;;;8.90;62.80;;;;;;4932926;28;20502;-70
2024/01/22 08:16:56;;;;;;;5.40;1.80;;;9.00;63.10;;;;;;4931186;28;20485;-70
2024/01/22 08:19:22;;;;;;;2.13;1.50;;;9.00;63.10;;;;;;4938938;28;20417;-70
2024/01/22 08:21:48;;;;;;;5.40;1.90;;;9.00;63.10;;;;;;4930180;28;20209;-70
2024/01/22 08:24:14;;;;;;;2.80;1.83;;;9.10;63.40;;;;;;4935044;28;20498;-70
2024/01/22 08:26:40;;;;;;;4.13;2.20;;;9.10;63.80;;;;;;4945052;28;20820;-68
2024/01/22 08:29:05;;;;;;;1.53;1.30;;;9.20;64.20;;;;;;4948157;28;20200;-69
2024/01/22 08:31:31;;;;;;;2.23;1.33;;;9.30;64.40;;;;;;4929741;28;20213;-68
2024/01/22 08:33:56;;;;;;;5.47;2.53;;;9.40;64.50;;;;;;4940517;28;20577;-68
2024/01/22 08:36:22;;;;;;;2.93;1.43;;;9.40;64.70;;;;;;4935422;28;20207;-70
2024/01/22 08:38:48;;;;;;;3.07;1.60;;;9.40;65.00;;;;;;4943664;28;20204;-74
2024/01/22 08:41:13;;;;;;;2.70;1.60;;;9.50;65.30;;;;;;4928861;28;20674;-70
2024/01/22 08:43:39;;;;;;;2.33;1.93;;;9.50;65.10;;;;;;4931956;28;20279;-69
2024/01/22 08:46:05;;;;;;;2.43;1.53;;;9.50;65.70;;;;;;4953916;28;20196;-71
2024/01/22 08:48:31;;;;;;;2.93;1.77;;;9.50;65.80;;;;;;4932802;28;20507;-69
2024/01/22 08:50:57;;;;;;;2.40;1.50;;;9.50;66.00;;;;;;4943411;28;20221;-69
2024/01/22 08:53:22;;;;;;;2.60;1.50;;;9.50;66.30;;;;;;4955207;28;20220;-70
2024/01/22 08:55:49;;;;;;;4.60;1.50;;;9.70;67.50;;;;;;4933790;28;20561;-70
2024/01/22 08:58:15;;;;;;;2.43;1.30;;;9.80;67.70;;;;;;4929671;28;20197;-71
2024/01/22 09:00:41;;;;;;;2.50;1.20;;;10.00;68.00;;;;;;4925456;28;20514;-71
2024/01/22 09:03:07;;;;;;;1.40;1.00;;;10.10;68.20;;;;;;4928677;28;20479;-70
2024/01/22 09:05:33;;;;;;;1.83;1.20;;;10.30;68.50;;;;;;4929773;28;21633;-69
2024/01/22 09:07:59;;;;;;;9.20;2.23;;;10.40;68.50;;;;;;4929784;28;20433;-69
2024/01/22 09:10:26;;;;;;;1.13;0.90;;;10.50;68.50;;;;;;4923925;28;20472;-71
2024/01/22 09:12:54;;;;;;;2.60;1.10;;;10.60;68.60;;;;;;4928910;28;20599;-70
2024/01/22 09:15:20;;;;;;;8.63;1.50;;;10.80;68.30;;;;;;4937218;28;20433;-69
2024/01/22 09:17:46;;;;;;;2.07;1.20;;;10.90;68.50;;;;;;4934404;28;20429;-69
2024/01/22 09:20:12;;;;;;;5.30;1.70;;;10.80;68.30;;;;;;4937410;28;21522;-68
2024/01/22 09:22:38;;;;;;;5.00;1.60;;;10.90;68.60;;;;;;4930350;28;21036;-68
2024/01/22 09:25:05;;;;;;;2.80;1.93;;;11.00;69.10;;;;;;4932199;28;20482;-69
2024/01/22 09:27:31;;;;;;;2.50;1.07;;;11.30;69.40;;;;;;4931217;28;20432;-69
2024/01/22 09:29:58;;;;;;;8.40;1.33;;;11.40;69.20;;;;;;4929434;28;20804;-69
2024/01/22 09:32:27;;;;;;;1.50;0.83;;;11.60;68.90;;;;;;4927944;28;20980;-69
2024/01/22 09:34:52;;;;;;;4.80;1.30;;;11.80;68.80;;;;;;4929405;28;20431;-70
2024/01/22 09:37:18;;;;;;;0.97;0.80;;;11.90;68.60;;;;;;4945691;28;20821;-69
2024/01/22 09:39:44;;;;;;;2.60;1.17;;;12.00;68.60;;;;;;4936162;28;20208;-68
2024/01/22 09:42:14;;;;;;;3.30;1.20;;;12.00;68.60;;;;;;4929168;28;20192;-69
2024/01/22 09:44:45;;;;;;;2.17;1.00;;;12.10;68.60;;;;;;4949869;28;20868;-70
2024/01/22 09:47:11;;;;;;;10.23;1.60;;;12.20;68.60;;;;;;4936169;28;20424;-70
2024/01/22 09:49:37;;;;;;;2.10;1.10;;;12.20;68.60;;;;;;4940651;28;20420;-69
2024/01/22 09:52:03;;;;;;;2.50;1.13;;;12.20;68.80;;;;;;4930489;28;20487;-67
2024/01/22 09:54:30;;;;;;;2.20;1.33;;;12.20;68.90;;;;;;4938972;28;20193;-70
2024/01/22 09:57:00;;;;;;;2.30;1.00;;;12.30;68.90;;;;;;4941647;28;20952;-69
2024/01/22 09:59:28;;;;;;;4.57;0.83;;;12.40;68.90;;;;;;4935545;28;20437;-69
2024/01/22 10:01:54;;;;;;;2.50;1.20;;;12.40;68.80;;;;;;4924121;28;20464;-69
2024/01/22 10:04:23;;;;;;;1.83;0.87;;;12.50;68.90;;;;;;4928098;28;20429;-69
2024/01/22 10:06:49;;;;;;;4.13;1.00;;;12.50;68.90;;;;;;4928550;28;20630;-67
2024/01/22 10:09:17;;;;;;;1.50;0.80;;;12.50;69.10;;;;;;4928441;28;20479;-70
2024/01/22 10:11:43;;;;;;;3.00;0.90;;;12.60;69.10;;;;;;4924292;28;20891;-70
2024/01/22 10:14:10;;;;;;;3.90;0.80;;;12.60;69.20;;;;;;4928879;28;20530;-70
2024/01/22 10:16:36;;;;;;;3.57;0.80;;;12.60;69.20;;;;;;4953675;28;20429;-71
2024/01/22 10:19:10;;;;;;;1.83;1.10;;;12.60;69.40;;;;;;4960277;28;20413;-68
2024/01/22 10:21:38;;;;;;;2.80;1.17;;;12.50;69.40;;;;;;4927486;28;20452;-69
2024/01/22 10:24:06;;;;;;;1.90;1.10;;;12.40;69.50;;;;;;4929200;28;20428;-69
2024/01/22 10:26:33;;;;;;;1.27;0.83;;;12.40;69.70;;;;;;4933984;28;20457;-69
2024/01/22 10:29:19;;;;;;;1.10;0.90;;;12.30;69.70;;;;;;4931291;28;20428;-68
2024/01/22 10:31:59;;;;;;;1.20;1.10;;;12.30;69.70;;;;;;4922606;28;20476;-68
2024/01/22 10:34:30;;;;;;;7.63;1.20;;;12.30;69.70;;;;;;4954808;28;20475;-68
2024/01/22 10:37:09;;;;;;;2.60;1.70;;;12.20;69.70;;;;;;4937556;28;20428;-69
2024/01/22 10:39:36;;;;;;;1.70;1.17;;;12.20;69.70;;;;;;4934756;28;20451;-70
2024/01/22 10:42:31;;;;;;;2.70;1.20;;;12.20;69.70;;;;;;4934400;28;21258;-69
2024/01/22 10:44:57;;;;;;;4.27;1.87;;;12.20;69.90;;;;;;4962824;28;20520;-70
2024/01/22 10:47:23;;;;;;;1.67;1.27;;;12.20;69.90;;;;;;4966633;28;20515;-70
2024/01/22 10:49:51;;;;;;;2.23;1.20;;;12.20;69.90;;;;;;4965823;28;20326;-67
2024/01/22 10:52:18;;;;;;;1.67;1.33;;;12.20;70.10;;;;;;4963380;28;20620;-70
2024/01/22 10:54:44;;;;;;;1.97;1.13;;;12.30;70.10;;;;;;4962719;28;20470;-70
2024/01/22 10:57:15;;;;;;;1.90;1.57;;;12.30;69.90;;;;;;4967915;28;20430;-69
2024/01/22 10:59:47;;;;;;;3.43;1.37;;;12.20;69.90;;;;;;4967488;28;20416;-69
2024/01/22 11:02:20;;;;;;;2.43;1.20;;;12.20;69.90;;;;;;4965118;28;20462;-68
2024/01/22 11:04:47;;;;;;;1.37;1.17;;;12.30;69.90;;;;;;4967444;28;20477;-68
2024/01/22 11:07:12;;;;;;;1.20;0.90;;;12.30;69.90;;;;;;4966081;28;20430;-71
2024/01/22 11:09:39;;;;;;;2.60;1.20;;;12.30;69.90;;;;;;4964687;28;20482;-69
2024/01/22 11:12:10;;;;;;;2.07;1.20;;;12.40;69.80;;;;;;4971069;28;20478;-70
2024/01/22 11:14:38;;;;;;;1.13;0.90;;;12.40;69.70;;;;;;4967908;28;20471;-69
2024/01/22 11:17:07;;;;;;;4.70;1.20;;;12.50;69.70;;;;;;4967893;28;20521;-70
2024/01/22 11:19:34;;;;;;;1.83;0.90;;;12.60;69.50;;;;;;4968686;28;20606;-68
2024/01/22 11:22:02;;;;;;;1.23;1.00;;;12.70;69.40;;;;;;4932020;28;20559;-71
2024/01/22 11:24:28;;;;;;;1.63;1.20;;;12.70;69.50;;;;;;4950168;28;20432;-68
2024/01/22 11:26:56;;;;;;;1.20;0.83;;;12.80;69.40;;;;;;4932255;28;20798;-70
2024/01/22 11:29:27;;;;;;;2.13;1.20;;;12.70;69.50;;;;;;4930738;28;20184;-70
2024/01/22 11:31:53;;;;;;;2.13;1.30;;;12.70;69.70;;;;;;4927276;28;20456;-69
2024/01/22 11:34:41;;;;;;;1.87;1.23;;;12.70;70.10;;;;;;4935628;28;20864;-71
2024/01/22 11:37:09;;;;;;;2.60;1.40;;;12.60;70.20;;;;;;4931263;28;20976;-69
2024/01/22 11:39:35;;;;;;;2.03;1.00;;;12.60;70.40;;;;;;4936295;28;20467;-69
2024/01/22 11:42:23;;;;;;;1.37;0.90;;;12.60;70.40;;;;;;4926882;28;20476;-69
2024/01/22 11:44:49;;;;;;;2.97;1.13;;;12.60;70.50;;;;;;4936598;28;20201;-69
2024/01/22 11:47:16;;;;;;;1.73;1.07;;;12.50;71.10;;;;;;4951202;28;20467;-68
2024/01/22 11:49:43;;;;;;;3.23;1.10;;;12.50;71.10;;;;;;4934225;28;21005;-69
2024/01/22 11:52:16;;;;;;;1.50;0.90;;;12.50;71.10;;;;;;4928797;28;20452;-70
2024/01/22 11:55:03;;;;;;;2.23;1.00;;;12.60;71.00;;;;;;4934414;28;20901;-69
2024/01/22 11:57:35;;;;;;;1.60;0.90;;;12.60;70.80;;;;;;4946648;28;20448;-68
2024/01/22 12:00:05;;;;;;;1.10;0.80;;;12.60;71.00;;;;;;4940157;28;20420;-69
2024/01/22 12:02:34;;;;;;;3.40;1.30;;;12.60;71.00;;;;;;4933488;29;20432;-70
2024/01/22 12:05:14;;;;;;;2.60;1.20;;;12.60;71.00;;;;;;4933298;28;20436;-69
2024/01/22 12:07:43;;;;;;;2.10;1.03;;;12.60;71.10;;;;;;4936685;28;20416;-67
2024/01/22 12:10:20;;;;;;;1.33;0.80;;;12.60;71.10;;;;;;4927771;28;20663;-67
2024/01/22 12:12:50;;;;;;;1.70;0.77;;;12.60;71.10;;;;;;4931562;28;20863;-71
2024/01/22 12:15:16;;;;;;;1.40;0.83;;;12.70;71.10;;;;;;4931131;28;20440;-68
2024/01/22 12:17:43;;;;;;;1.50;0.93;;;12.70;71.00;;;;;;4940407;28;20818;-68
2024/01/22 12:20:09;;;;;;;1.77;0.80;;;12.70;71.30;;;;;;4940497;28;20761;-69
2024/01/22 12:22:35;;;;;;;1.10;0.80;;;12.70;71.60;;;;;;4935219;28;20471;-69
2024/01/22 12:25:12;;;;;;;1.00;0.80;;;12.70;71.60;;;;;;4933329;28;20530;-69
2024/01/22 12:27:38;;;;;;;2.23;1.00;;;12.80;71.70;;;;;;4948995;28;20447;-69
2024/01/22 12:30:05;;;;;;;2.13;1.17;;;12.80;71.80;;;;;;4932312;28;20968;-70
2024/01/22 12:32:32;;;;;;;2.03;0.90;;;12.90;71.80;;;;;;4945563;28;20479;-70
2024/01/22 12:34:59;;;;;;;1.90;0.97;;;12.90;71.80;;;;;;4948486;28;20555;-68
2024/01/22 12:37:28;;;;;;;1.60;0.93;;;13.00;71.60;;;;;;4951858;28;20822;-70
2024/01/22 12:40:08;;;;;;;1.57;1.07;;;13.00;71.60;;;;;;4939913;28;20814;-67
2024/01/22 12:42:34;;;;;;;1.83;1.13;;;12.90;72.00;;;;;;4928623;28;20539;-69
2024/01/22 12:45:00;;;;;;;1.30;0.90;;;12.80;72.10;;;;;;4950927;28;20429;-69
2024/01/22 12:47:29;;;;;;;1.50;0.90;;;12.80;72.10;;;;;;4932752;28;20271;-69
2024/01/22 12:49:54;;;;;;;2.10;1.20;;;12.80;72.30;;;;;;4933420;28;20460;-66